sensor_id;sensor_type;location;lat;lon;timestamp;temperature;humidity
13148;DHT22;6639;50.956;4.242;2022-07-06T00:01:09;23.50;80.90
13148;DHT22;6639;50.956;4.242;2022-07-06T00:03:37;23.40;80.90
13148;DHT22;6639;50.956;4.242;2022-07-06T00:06:06;23.40;80.90
13148;DHT22;6639;50.956;4.242;2022-07-06T00:08:37;23.20;81.00
13148;DHT22;6639;50.956;4.242;2022-07-06T00:11:04;23.30;81.20
13148;DHT22;6639;50.956;4.242;2022-07-06T00:13:32;23.20;80.90
13148;DHT22;6639;50.956;4.242;2022-07-06T00:15:59;23.30;81.20
13148;DHT22;6639;50.956;4.242;2022-07-06T00:18:27;23.20;81.50
13148;DHT22;6639;50.956;4.242;2022-07-06T00:20:54;23.20;81.20
13148;DHT22;6639;50.956;4.242;2022-07-06T00:23:23;23.10;81.00
13148;DHT22;6639;50.956;4.242;2022-07-06T00:25:50;23.20;81.30
13148;DHT22;6639;50.956;4.242;2022-07-06T00:28:17;23.10;81.30
13148;DHT22;6639;50.956;4.242;2022-07-06T00:30:45;23.00;81.70
13148;DHT22;6639;50.956;4.242;2022-07-06T00:33:13;22.70;82.10
13148;DHT22;6639;50.956;4.242;2022-07-06T00:35:39;22.70;82.70
13148;DHT22;6639;50.956;4.242;2022-07-06T00:38:06;22.60;83.40
13148;DHT22;6639;50.956;4.242;2022-07-06T00:40:34;22.50;83.10
13148;DHT22;6639;50.956;4.242;2022-07-06T00:43:01;22.60;83.00
13148;DHT22;6639;50.956;4.242;2022-07-06T00:45:28;22.60;83.10
13148;DHT22;6639;50.956;4.242;2022-07-06T00:47:57;22.60;83.60
13148;DHT22;6639;50.956;4.242;2022-07-06T00:50:24;22.40;83.10
13148;DHT22;6639;50.956;4.242;2022-07-06T00:52:52;22.50;83.00
13148;DHT22;6639;50.956;4.242;2022-07-06T00:55:21;22.50;82.90
13148;DHT22;6639;50.956;4.242;2022-07-06T00:57:48;22.60;82.70
13148;DHT22;6639;50.956;4.242;2022-07-06T01:00:17;22.60;82.40
13148;DHT22;6639;50.956;4.242;2022-07-06T01:02:44;22.60;82.20
13148;DHT22;6639;50.956;4.242;2022-07-06T01:05:16;22.50;82.40
13148;DHT22;6639;50.956;4.242;2022-07-06T01:07:45;22.30;82.90
13148;DHT22;6639;50.956;4.242;2022-07-06T01:10:13;22.40;83.00
13148;DHT22;6639;50.956;4.242;2022-07-06T01:12:41;22.40;82.80
13148;DHT22;6639;50.956;4.242;2022-07-06T01:15:11;22.40;82.70
13148;DHT22;6639;50.956;4.242;2022-07-06T01:17:38;22.30;82.60
13148;DHT22;6639;50.956;4.242;2022-07-06T01:20:10;22.00;83.10
13148;DHT22;6639;50.956;4.242;2022-07-06T01:22:37;22.00;84.00
13148;DHT22;6639;50.956;4.242;2022-07-06T01:25:05;22.00;83.80
13148;DHT22;6639;50.956;4.242;2022-07-06T01:27:34;22.20;84.00
13148;DHT22;6639;50.956;4.242;2022-07-06T01:30:04;22.20;84.10
13148;DHT22;6639;50.956;4.242;2022-07-06T01:32:31;22.20;84.00
13148;DHT22;6639;50.956;4.242;2022-07-06T01:35:06;22.10;84.30
13148;DHT22;6639;50.956;4.242;2022-07-06T01:37:35;22.20;83.40
13148;DHT22;6639;50.956;4.242;2022-07-06T01:40:04;22.30;83.60
13148;DHT22;6639;50.956;4.242;2022-07-06T01:42:31;22.20;83.50
13148;DHT22;6639;50.956;4.242;2022-07-06T01:44:58;22.20;83.40
13148;DHT22;6639;50.956;4.242;2022-07-06T01:47:25;22.20;83.10
13148;DHT22;6639;50.956;4.242;2022-07-06T01:49:52;22.20;82.90
13148;DHT22;6639;50.956;4.242;2022-07-06T01:52:19;22.30;84.20
13148;DHT22;6639;50.956;4.242;2022-07-06T01:54:47;22.10;83.40
13148;DHT22;6639;50.956;4.242;2022-07-06T01:57:14;22.10;84.00
13148;DHT22;6639;50.956;4.242;2022-07-06T01:59:41;21.90;84.40
13148;DHT22;6639;50.956;4.242;2022-07-06T02:02:08;21.50;84.70
13148;DHT22;6639;50.956;4.242;2022-07-06T02:04:35;21.40;85.10
13148;DHT22;6639;50.956;4.242;2022-07-06T02:07:02;21.20;86.40
13148;DHT22;6639;50.956;4.242;2022-07-06T02:09:29;21.30;86.40
13148;DHT22;6639;50.956;4.242;2022-07-06T02:11:57;21.40;85.70
13148;DHT22;6639;50.956;4.242;2022-07-06T02:14:24;21.50;85.70
13148;DHT22;6639;50.956;4.242;2022-07-06T02:16:51;21.60;86.30
13148;DHT22;6639;50.956;4.242;2022-07-06T02:19:18;21.50;84.80
13148;DHT22;6639;50.956;4.242;2022-07-06T02:21:45;21.70;84.90
13148;DHT22;6639;50.956;4.242;2022-07-06T02:24:12;21.70;84.70
13148;DHT22;6639;50.956;4.242;2022-07-06T02:26:39;21.60;84.40
13148;DHT22;6639;50.956;4.242;2022-07-06T02:29:08;21.40;84.80
13148;DHT22;6639;50.956;4.242;2022-07-06T02:31:35;21.40;85.40
13148;DHT22;6639;50.956;4.242;2022-07-06T02:34:02;21.40;84.80
13148;DHT22;6639;50.956;4.242;2022-07-06T02:36:29;21.50;84.70
13148;DHT22;6639;50.956;4.242;2022-07-06T02:38:55;21.60;84.00
13148;DHT22;6639;50.956;4.242;2022-07-06T02:41:22;21.70;83.80
13148;DHT22;6639;50.956;4.242;2022-07-06T02:43:49;21.70;83.40
13148;DHT22;6639;50.956;4.242;2022-07-06T02:46:20;21.80;83.10
13148;DHT22;6639;50.956;4.242;2022-07-06T02:48:46;21.70;83.00
13148;DHT22;6639;50.956;4.242;2022-07-06T02:51:13;21.70;82.80
13148;DHT22;6639;50.956;4.242;2022-07-06T02:53:40;21.70;82.60
13148;DHT22;6639;50.956;4.242;2022-07-06T02:56:07;21.80;82.70
13148;DHT22;6639;50.956;4.242;2022-07-06T02:58:34;21.80;82.80
13148;DHT22;6639;50.956;4.242;2022-07-06T03:01:01;21.70;82.60
13148;DHT22;6639;50.956;4.242;2022-07-06T03:03:29;21.70;82.50
13148;DHT22;6639;50.956;4.242;2022-07-06T03:05:56;21.60;82.30
13148;DHT22;6639;50.956;4.242;2022-07-06T03:08:23;21.70;82.30
13148;DHT22;6639;50.956;4.242;2022-07-06T03:10:49;21.50;82.40
13148;DHT22;6639;50.956;4.242;2022-07-06T03:13:16;21.60;82.60
13148;DHT22;6639;50.956;4.242;2022-07-06T03:15:43;21.60;82.70
13148;DHT22;6639;50.956;4.242;2022-07-06T03:18:10;21.50;82.80
13148;DHT22;6639;50.956;4.242;2022-07-06T03:20:38;21.40;83.20
13148;DHT22;6639;50.956;4.242;2022-07-06T03:23:05;21.40;83.60
13148;DHT22;6639;50.956;4.242;2022-07-06T03:25:32;21.30;83.60
13148;DHT22;6639;50.956;4.242;2022-07-06T03:27:59;21.30;83.90
13148;DHT22;6639;50.956;4.242;2022-07-06T03:30:27;21.30;83.40
13148;DHT22;6639;50.956;4.242;2022-07-06T03:32:54;21.20;84.00
13148;DHT22;6639;50.956;4.242;2022-07-06T03:35:21;20.90;84.20
13148;DHT22;6639;50.956;4.242;2022-07-06T03:37:49;20.90;85.30
13148;DHT22;6639;50.956;4.242;2022-07-06T03:40:16;21.10;85.00
13148;DHT22;6639;50.956;4.242;2022-07-06T03:42:43;21.00;84.90
13148;DHT22;6639;50.956;4.242;2022-07-06T03:45:10;21.10;84.70
13148;DHT22;6639;50.956;4.242;2022-07-06T03:47:37;21.20;85.20
13148;DHT22;6639;50.956;4.242;2022-07-06T03:50:05;21.40;85.00
13148;DHT22;6639;50.956;4.242;2022-07-06T03:52:32;20.90;85.60
13148;DHT22;6639;50.956;4.242;2022-07-06T03:55:01;20.60;86.70
13148;DHT22;6639;50.956;4.242;2022-07-06T03:57:28;20.70;87.20
13148;DHT22;6639;50.956;4.242;2022-07-06T04:02:41;20.80;86.70
13148;DHT22;6639;50.956;4.242;2022-07-06T04:05:08;21.10;86.10
13148;DHT22;6639;50.956;4.242;2022-07-06T04:07:35;20.90;86.00
13148;DHT22;6639;50.956;4.242;2022-07-06T04:10:04;21.10;86.20
13148;DHT22;6639;50.956;4.242;2022-07-06T04:12:31;21.20;85.50
13148;DHT22;6639;50.956;4.242;2022-07-06T04:14:58;21.30;85.20
13148;DHT22;6639;50.956;4.242;2022-07-06T04:17:24;21.40;85.40
13148;DHT22;6639;50.956;4.242;2022-07-06T04:20:09;21.20;85.50
13148;DHT22;6639;50.956;4.242;2022-07-06T04:22:38;21.30;85.10
13148;DHT22;6639;50.956;4.242;2022-07-06T04:25:07;21.40;85.30
13148;DHT22;6639;50.956;4.242;2022-07-06T04:27:35;21.40;85.60
13148;DHT22;6639;50.956;4.242;2022-07-06T04:30:02;21.00;86.80
13148;DHT22;6639;50.956;4.242;2022-07-06T04:32:30;20.90;87.20
13148;DHT22;6639;50.956;4.242;2022-07-06T04:34:57;21.20;87.30
13148;DHT22;6639;50.956;4.242;2022-07-06T04:37:24;21.30;87.20
13148;DHT22;6639;50.956;4.242;2022-07-06T04:39:51;21.40;87.40
13148;DHT22;6639;50.956;4.242;2022-07-06T04:42:19;21.50;87.50
13148;DHT22;6639;50.956;4.242;2022-07-06T04:44:45;21.70;87.60
13148;DHT22;6639;50.956;4.242;2022-07-06T04:47:12;21.80;86.50
13148;DHT22;6639;50.956;4.242;2022-07-06T04:49:40;21.90;87.40
13148;DHT22;6639;50.956;4.242;2022-07-06T04:52:08;21.80;86.50
13148;DHT22;6639;50.956;4.242;2022-07-06T04:54:35;21.80;88.00
13148;DHT22;6639;50.956;4.242;2022-07-06T04:57:02;21.80;88.70
13148;DHT22;6639;50.956;4.242;2022-07-06T04:59:30;21.80;88.90
13148;DHT22;6639;50.956;4.242;2022-07-06T05:01:57;21.80;89.00
13148;DHT22;6639;50.956;4.242;2022-07-06T05:04:24;21.80;89.70
13148;DHT22;6639;50.956;4.242;2022-07-06T05:06:51;21.90;90.20
13148;DHT22;6639;50.956;4.242;2022-07-06T05:09:18;22.00;90.20
13148;DHT22;6639;50.956;4.242;2022-07-06T05:11:44;22.10;89.90
13148;DHT22;6639;50.956;4.242;2022-07-06T05:14:11;22.10;90.00
13148;DHT22;6639;50.956;4.242;2022-07-06T05:16:39;21.90;88.70
13148;DHT22;6639;50.956;4.242;2022-07-06T05:19:07;22.00;89.40
13148;DHT22;6639;50.956;4.242;2022-07-06T05:21:34;22.00;89.70
13148;DHT22;6639;50.956;4.242;2022-07-06T05:24:01;22.20;90.10
13148;DHT22;6639;50.956;4.242;2022-07-06T05:26:28;22.30;90.10
13148;DHT22;6639;50.956;4.242;2022-07-06T05:28:55;22.00;89.20
13148;DHT22;6639;50.956;4.242;2022-07-06T05:31:22;22.20;89.50
13148;DHT22;6639;50.956;4.242;2022-07-06T05:33:50;22.30;90.10
13148;DHT22;6639;50.956;4.242;2022-07-06T05:36:17;22.40;90.00
13148;DHT22;6639;50.956;4.242;2022-07-06T05:38:45;22.20;90.30
13148;DHT22;6639;50.956;4.242;2022-07-06T05:41:12;21.60;91.40
13148;DHT22;6639;50.956;4.242;2022-07-06T05:43:39;21.90;91.70
13148;DHT22;6639;50.956;4.242;2022-07-06T05:46:06;21.90;91.70
13148;DHT22;6639;50.956;4.242;2022-07-06T05:48:42;22.30;91.40
13148;DHT22;6639;50.956;4.242;2022-07-06T05:51:31;22.50;91.30
13148;DHT22;6639;50.956;4.242;2022-07-06T05:53:58;22.70;91.30
13148;DHT22;6639;50.956;4.242;2022-07-06T05:56:26;22.80;91.20
13148;DHT22;6639;50.956;4.242;2022-07-06T05:58:53;23.00;91.00
13148;DHT22;6639;50.956;4.242;2022-07-06T06:01:24;23.10;90.20
13148;DHT22;6639;50.956;4.242;2022-07-06T06:03:54;23.20;90.00
13148;DHT22;6639;50.956;4.242;2022-07-06T06:06:21;23.10;89.50
13148;DHT22;6639;50.956;4.242;2022-07-06T06:08:51;23.20;89.50
13148;DHT22;6639;50.956;4.242;2022-07-06T06:11:25;23.10;89.40
13148;DHT22;6639;50.956;4.242;2022-07-06T06:13:52;22.60;90.20
13148;DHT22;6639;50.956;4.242;2022-07-06T06:16:19;23.00;90.90
13148;DHT22;6639;50.956;4.242;2022-07-06T06:18:46;23.10;90.10
13148;DHT22;6639;50.956;4.242;2022-07-06T06:21:15;23.00;90.50
13148;DHT22;6639;50.956;4.242;2022-07-06T06:23:47;23.10;90.70
13148;DHT22;6639;50.956;4.242;2022-07-06T06:26:15;23.30;91.00
13148;DHT22;6639;50.956;4.242;2022-07-06T06:28:44;23.50;91.20
13148;DHT22;6639;50.956;4.242;2022-07-06T06:31:11;23.90;91.40
13148;DHT22;6639;50.956;4.242;2022-07-06T06:33:41;24.30;90.60
13148;DHT22;6639;50.956;4.242;2022-07-06T06:36:10;24.30;90.70
13148;DHT22;6639;50.956;4.242;2022-07-06T06:38:39;24.50;90.30
13148;DHT22;6639;50.956;4.242;2022-07-06T06:41:06;24.40;90.00
13148;DHT22;6639;50.956;4.242;2022-07-06T06:43:38;24.70;90.40
13148;DHT22;6639;50.956;4.242;2022-07-06T06:46:09;24.80;90.20
13148;DHT22;6639;50.956;4.242;2022-07-06T06:48:36;24.90;89.70
13148;DHT22;6639;50.956;4.242;2022-07-06T06:51:06;25.30;90.10
13148;DHT22;6639;50.956;4.242;2022-07-06T06:53:34;25.30;88.70
13148;DHT22;6639;50.956;4.242;2022-07-06T06:56:01;25.10;88.40
13148;DHT22;6639;50.956;4.242;2022-07-06T06:58:28;25.00;88.90
13148;DHT22;6639;50.956;4.242;2022-07-06T07:00:58;24.70;89.00
13148;DHT22;6639;50.956;4.242;2022-07-06T07:03:25;24.80;88.90
13148;DHT22;6639;50.956;4.242;2022-07-06T07:05:55;25.20;88.60
13148;DHT22;6639;50.956;4.242;2022-07-06T07:08:22;25.10;88.50
13148;DHT22;6639;50.956;4.242;2022-07-06T07:10:52;25.30;87.90
13148;DHT22;6639;50.956;4.242;2022-07-06T07:13:19;25.00;88.10
13148;DHT22;6639;50.956;4.242;2022-07-06T07:15:46;25.00;88.90
13148;DHT22;6639;50.956;4.242;2022-07-06T07:18:29;25.10;90.10
13148;DHT22;6639;50.956;4.242;2022-07-06T07:20:56;25.60;88.40
13148;DHT22;6639;50.956;4.242;2022-07-06T07:23:22;25.60;86.70
13148;DHT22;6639;50.956;4.242;2022-07-06T07:25:49;26.10;86.50
13148;DHT22;6639;50.956;4.242;2022-07-06T07:28:16;26.60;86.00
13148;DHT22;6639;50.956;4.242;2022-07-06T07:30:43;26.80;85.80
13148;DHT22;6639;50.956;4.242;2022-07-06T07:33:10;27.10;84.10
13148;DHT22;6639;50.956;4.242;2022-07-06T07:35:38;27.20;84.40
13148;DHT22;6639;50.956;4.242;2022-07-06T07:38:05;27.30;83.40
13148;DHT22;6639;50.956;4.242;2022-07-06T07:40:32;27.50;82.90
13148;DHT22;6639;50.956;4.242;2022-07-06T07:43:01;27.90;79.50
13148;DHT22;6639;50.956;4.242;2022-07-06T07:45:27;28.10;79.90
13148;DHT22;6639;50.956;4.242;2022-07-06T07:47:54;28.30;78.40
13148;DHT22;6639;50.956;4.242;2022-07-06T07:50:23;28.30;79.00
13148;DHT22;6639;50.956;4.242;2022-07-06T07:52:51;28.10;76.70
13148;DHT22;6639;50.956;4.242;2022-07-06T07:55:18;28.20;77.30
13148;DHT22;6639;50.956;4.242;2022-07-06T07:57:47;28.10;77.40
13148;DHT22;6639;50.956;4.242;2022-07-06T08:00:14;28.50;77.80
13148;DHT22;6639;50.956;4.242;2022-07-06T08:02:42;28.60;79.60
13148;DHT22;6639;50.956;4.242;2022-07-06T08:05:09;29.00;78.30
13148;DHT22;6639;50.956;4.242;2022-07-06T08:07:39;29.30;75.40
13148;DHT22;6639;50.956;4.242;2022-07-06T08:10:10;28.70;77.10
13148;DHT22;6639;50.956;4.242;2022-07-06T08:12:38;28.60;77.90
13148;DHT22;6639;50.956;4.242;2022-07-06T08:15:06;28.30;76.30
13148;DHT22;6639;50.956;4.242;2022-07-06T08:17:33;28.30;77.30
13148;DHT22;6639;50.956;4.242;2022-07-06T08:20:00;28.60;76.60
13148;DHT22;6639;50.956;4.242;2022-07-06T08:22:27;29.10;77.20
13148;DHT22;6639;50.956;4.242;2022-07-06T08:24:55;29.30;77.00
13148;DHT22;6639;50.956;4.242;2022-07-06T08:27:24;29.40;74.20
13148;DHT22;6639;50.956;4.242;2022-07-06T08:29:51;29.20;74.30
13148;DHT22;6639;50.956;4.242;2022-07-06T08:32:18;29.40;75.20
13148;DHT22;6639;50.956;4.242;2022-07-06T08:34:46;29.80;75.70
13148;DHT22;6639;50.956;4.242;2022-07-06T08:37:13;30.00;76.10
13148;DHT22;6639;50.956;4.242;2022-07-06T08:39:40;30.20;74.20
13148;DHT22;6639;50.956;4.242;2022-07-06T08:42:07;28.60;73.50
13148;DHT22;6639;50.956;4.242;2022-07-06T08:44:37;28.80;76.00
13148;DHT22;6639;50.956;4.242;2022-07-06T08:47:05;29.50;75.40
13148;DHT22;6639;50.956;4.242;2022-07-06T08:49:33;29.50;74.30
13148;DHT22;6639;50.956;4.242;2022-07-06T08:52:03;28.90;75.20
13148;DHT22;6639;50.956;4.242;2022-07-06T08:54:30;30.00;74.70
13148;DHT22;6639;50.956;4.242;2022-07-06T08:56:57;30.50;75.10
13148;DHT22;6639;50.956;4.242;2022-07-06T08:59:27;30.40;73.90
13148;DHT22;6639;50.956;4.242;2022-07-06T09:01:55;30.50;72.70
13148;DHT22;6639;50.956;4.242;2022-07-06T09:04:22;30.70;75.10
13148;DHT22;6639;50.956;4.242;2022-07-06T09:06:50;31.00;72.50
13148;DHT22;6639;50.956;4.242;2022-07-06T09:09:21;30.90;72.40
13148;DHT22;6639;50.956;4.242;2022-07-06T09:11:50;29.50;73.30
13148;DHT22;6639;50.956;4.242;2022-07-06T09:14:18;29.60;74.40
13148;DHT22;6639;50.956;4.242;2022-07-06T09:16:46;30.40;73.20
13148;DHT22;6639;50.956;4.242;2022-07-06T09:19:19;31.00;72.90
13148;DHT22;6639;50.956;4.242;2022-07-06T09:21:45;31.00;72.00
13148;DHT22;6639;50.956;4.242;2022-07-06T09:24:13;31.40;71.60
13148;DHT22;6639;50.956;4.242;2022-07-06T09:26:40;31.10;72.80
13148;DHT22;6639;50.956;4.242;2022-07-06T09:29:07;30.40;72.50
13148;DHT22;6639;50.956;4.242;2022-07-06T09:31:35;30.70;73.20
13148;DHT22;6639;50.956;4.242;2022-07-06T09:34:03;31.00;71.90
13148;DHT22;6639;50.956;4.242;2022-07-06T09:36:44;31.00;71.80
13148;DHT22;6639;50.956;4.242;2022-07-06T09:39:19;29.60;72.70
13148;DHT22;6639;50.956;4.242;2022-07-06T09:41:47;29.90;73.70
13148;DHT22;6639;50.956;4.242;2022-07-06T09:44:20;29.70;73.30
13148;DHT22;6639;50.956;4.242;2022-07-06T09:46:47;29.60;73.20
13148;DHT22;6639;50.956;4.242;2022-07-06T09:49:17;29.60;74.40
13148;DHT22;6639;50.956;4.242;2022-07-06T09:51:46;29.50;73.00
13148;DHT22;6639;50.956;4.242;2022-07-06T09:54:14;29.40;76.10
13148;DHT22;6639;50.956;4.242;2022-07-06T09:56:45;29.90;74.70
13148;DHT22;6639;50.956;4.242;2022-07-06T09:59:16;30.40;73.50
13148;DHT22;6639;50.956;4.242;2022-07-06T10:01:44;30.00;75.10
13148;DHT22;6639;50.956;4.242;2022-07-06T10:04:13;30.40;74.20
13148;DHT22;6639;50.956;4.242;2022-07-06T10:06:41;30.00;74.70
13148;DHT22;6639;50.956;4.242;2022-07-06T10:09:10;30.40;75.50
13148;DHT22;6639;50.956;4.242;2022-07-06T10:11:40;30.70;72.90
13148;DHT22;6639;50.956;4.242;2022-07-06T10:14:07;31.00;71.20
13148;DHT22;6639;50.956;4.242;2022-07-06T10:16:36;29.90;71.50
13148;DHT22;6639;50.956;4.242;2022-07-06T10:19:05;29.20;72.20
13148;DHT22;6639;50.956;4.242;2022-07-06T10:21:34;29.00;73.90
13148;DHT22;6639;50.956;4.242;2022-07-06T10:24:03;29.80;73.90
13148;DHT22;6639;50.956;4.242;2022-07-06T10:26:32;30.10;73.10
13148;DHT22;6639;50.956;4.242;2022-07-06T10:29:00;30.50;73.40
13148;DHT22;6639;50.956;4.242;2022-07-06T10:31:28;30.30;69.80
13148;DHT22;6639;50.956;4.242;2022-07-06T10:33:56;29.80;71.40
13148;DHT22;6639;50.956;4.242;2022-07-06T10:36:24;29.10;72.20
13148;DHT22;6639;50.956;4.242;2022-07-06T10:38:52;29.30;74.10
13148;DHT22;6639;50.956;4.242;2022-07-06T10:41:32;29.90;73.70
13148;DHT22;6639;50.956;4.242;2022-07-06T10:44:14;30.20;72.80
13148;DHT22;6639;50.956;4.242;2022-07-06T10:46:50;29.80;71.20
13148;DHT22;6639;50.956;4.242;2022-07-06T10:49:17;29.80;71.80
13148;DHT22;6639;50.956;4.242;2022-07-06T10:51:44;29.90;72.10
13148;DHT22;6639;50.956;4.242;2022-07-06T10:54:11;29.50;74.80
13148;DHT22;6639;50.956;4.242;2022-07-06T10:56:40;29.30;72.90
13148;DHT22;6639;50.956;4.242;2022-07-06T10:59:09;29.50;73.40
13148;DHT22;6639;50.956;4.242;2022-07-06T11:01:37;29.50;74.60
13148;DHT22;6639;50.956;4.242;2022-07-06T11:04:08;29.60;73.90
13148;DHT22;6639;50.956;4.242;2022-07-06T11:06:37;29.80;73.50
13148;DHT22;6639;50.956;4.242;2022-07-06T11:09:04;29.60;73.20
13148;DHT22;6639;50.956;4.242;2022-07-06T11:11:42;29.90;72.60
13148;DHT22;6639;50.956;4.242;2022-07-06T11:14:12;30.30;73.00
13148;DHT22;6639;50.956;4.242;2022-07-06T11:19:26;30.00;73.30
13148;DHT22;6639;50.956;4.242;2022-07-06T11:21:55;30.00;72.60
13148;DHT22;6639;50.956;4.242;2022-07-06T11:24:26;29.50;73.90
13148;DHT22;6639;50.956;4.242;2022-07-06T11:26:56;28.70;75.10
13148;DHT22;6639;50.956;4.242;2022-07-06T11:29:25;28.90;76.20
13148;DHT22;6639;50.956;4.242;2022-07-06T11:31:54;28.50;77.70
13148;DHT22;6639;50.956;4.242;2022-07-06T11:34:23;28.50;76.10
13148;DHT22;6639;50.956;4.242;2022-07-06T11:36:54;28.30;77.80
13148;DHT22;6639;50.956;4.242;2022-07-06T11:39:22;27.70;77.00
13148;DHT22;6639;50.956;4.242;2022-07-06T11:41:48;27.90;77.70
13148;DHT22;6639;50.956;4.242;2022-07-06T11:44:17;28.10;77.00
13148;DHT22;6639;50.956;4.242;2022-07-06T11:46:46;28.30;77.70
13148;DHT22;6639;50.956;4.242;2022-07-06T11:49:13;28.40;75.90
13148;DHT22;6639;50.956;4.242;2022-07-06T11:51:41;28.60;76.70
13148;DHT22;6639;50.956;4.242;2022-07-06T11:54:09;28.50;75.60
13148;DHT22;6639;50.956;4.242;2022-07-06T11:56:36;28.80;76.20
13148;DHT22;6639;50.956;4.242;2022-07-06T11:59:04;28.90;75.90
13148;DHT22;6639;50.956;4.242;2022-07-06T12:01:33;29.40;74.40
13148;DHT22;6639;50.956;4.242;2022-07-06T12:04:01;29.50;73.00
13148;DHT22;6639;50.956;4.242;2022-07-06T12:06:31;29.80;71.80
13148;DHT22;6639;50.956;4.242;2022-07-06T12:08:59;29.40;71.50
13148;DHT22;6639;50.956;4.242;2022-07-06T12:11:30;28.50;71.60
13148;DHT22;6639;50.956;4.242;2022-07-06T12:13:59;27.90;73.50
13148;DHT22;6639;50.956;4.242;2022-07-06T12:16:29;27.60;75.60
13148;DHT22;6639;50.956;4.242;2022-07-06T12:19:06;27.80;75.20
13148;DHT22;6639;50.956;4.242;2022-07-06T12:21:48;27.70;76.90
13148;DHT22;6639;50.956;4.242;2022-07-06T12:24:19;28.00;74.50
13148;DHT22;6639;50.956;4.242;2022-07-06T12:26:46;28.20;76.20
13148;DHT22;6639;50.956;4.242;2022-07-06T12:29:14;28.30;75.80
13148;DHT22;6639;50.956;4.242;2022-07-06T12:31:42;28.20;77.40
13148;DHT22;6639;50.956;4.242;2022-07-06T12:34:15;28.20;75.30
13148;DHT22;6639;50.956;4.242;2022-07-06T12:36:42;28.60;75.50
13148;DHT22;6639;50.956;4.242;2022-07-06T12:39:12;29.20;74.90
13148;DHT22;6639;50.956;4.242;2022-07-06T12:41:44;29.80;73.60
13148;DHT22;6639;50.956;4.242;2022-07-06T12:44:12;29.70;72.90
13148;DHT22;6639;50.956;4.242;2022-07-06T12:46:40;29.90;72.20
13148;DHT22;6639;50.956;4.242;2022-07-06T12:49:16;30.30;71.80
13148;DHT22;6639;50.956;4.242;2022-07-06T12:51:55;30.10;72.70
13148;DHT22;6639;50.956;4.242;2022-07-06T12:54:23;30.50;71.60
13148;DHT22;6639;50.956;4.242;2022-07-06T12:57:11;30.20;74.20
13148;DHT22;6639;50.956;4.242;2022-07-06T12:59:41;30.50;72.60
13148;DHT22;6639;50.956;4.242;2022-07-06T13:02:18;31.00;69.30
13148;DHT22;6639;50.956;4.242;2022-07-06T13:04:54;31.10;69.20
13148;DHT22;6639;50.956;4.242;2022-07-06T13:07:21;30.40;69.60
13148;DHT22;6639;50.956;4.242;2022-07-06T13:09:48;30.00;70.30
13148;DHT22;6639;50.956;4.242;2022-07-06T13:12:16;29.10;71.60
13148;DHT22;6639;50.956;4.242;2022-07-06T13:14:43;29.00;72.60
13148;DHT22;6639;50.956;4.242;2022-07-06T13:17:13;29.20;72.00
13148;DHT22;6639;50.956;4.242;2022-07-06T13:19:40;29.50;72.60
13148;DHT22;6639;50.956;4.242;2022-07-06T13:22:09;29.60;72.20
13148;DHT22;6639;50.956;4.242;2022-07-06T13:24:36;29.90;71.50
13148;DHT22;6639;50.956;4.242;2022-07-06T13:27:03;29.70;72.40
13148;DHT22;6639;50.956;4.242;2022-07-06T13:29:30;28.70;72.40
13148;DHT22;6639;50.956;4.242;2022-07-06T13:32:00;28.10;74.90
13148;DHT22;6639;50.956;4.242;2022-07-06T13:34:28;28.20;75.40
13148;DHT22;6639;50.956;4.242;2022-07-06T13:36:54;27.80;74.30
13148;DHT22;6639;50.956;4.242;2022-07-06T13:39:24;28.30;73.30
13148;DHT22;6639;50.956;4.242;2022-07-06T13:41:53;29.00;73.10
13148;DHT22;6639;50.956;4.242;2022-07-06T13:44:20;28.90;73.70
13148;DHT22;6639;50.956;4.242;2022-07-06T13:46:47;28.40;73.10
13148;DHT22;6639;50.956;4.242;2022-07-06T13:49:16;28.30;73.30
13148;DHT22;6639;50.956;4.242;2022-07-06T13:51:43;28.00;73.20
13148;DHT22;6639;50.956;4.242;2022-07-06T13:54:10;28.10;75.90
13148;DHT22;6639;50.956;4.242;2022-07-06T13:56:39;28.30;73.80
13148;DHT22;6639;50.956;4.242;2022-07-06T13:59:06;28.90;73.70
13148;DHT22;6639;50.956;4.242;2022-07-06T14:01:33;28.50;73.90
13148;DHT22;6639;50.956;4.242;2022-07-06T14:04:00;28.20;75.10
13148;DHT22;6639;50.956;4.242;2022-07-06T14:06:27;27.90;76.00
13148;DHT22;6639;50.956;4.242;2022-07-06T14:08:54;28.60;75.80
13148;DHT22;6639;50.956;4.242;2022-07-06T14:11:21;29.50;74.90
13148;DHT22;6639;50.956;4.242;2022-07-06T14:13:50;29.50;73.00
13148;DHT22;6639;50.956;4.242;2022-07-06T14:16:17;29.20;73.80
13148;DHT22;6639;50.956;4.242;2022-07-06T14:18:44;29.20;73.60
13148;DHT22;6639;50.956;4.242;2022-07-06T14:21:11;29.70;73.50
13148;DHT22;6639;50.956;4.242;2022-07-06T14:23:38;29.90;72.40
13148;DHT22;6639;50.956;4.242;2022-07-06T14:26:05;29.90;73.40
13148;DHT22;6639;50.956;4.242;2022-07-06T14:28:32;30.00;74.70
13148;DHT22;6639;50.956;4.242;2022-07-06T14:31:00;30.00;72.00
13148;DHT22;6639;50.956;4.242;2022-07-06T14:33:28;30.00;73.00
13148;DHT22;6639;50.956;4.242;2022-07-06T14:35:55;29.40;74.10
13148;DHT22;6639;50.956;4.242;2022-07-06T14:38:22;29.60;74.40
13148;DHT22;6639;50.956;4.242;2022-07-06T14:40:49;29.80;74.20
13148;DHT22;6639;50.956;4.242;2022-07-06T14:43:16;29.70;73.20
13148;DHT22;6639;50.956;4.242;2022-07-06T14:45:44;29.70;72.90
13148;DHT22;6639;50.956;4.242;2022-07-06T14:48:15;30.20;72.80
13148;DHT22;6639;50.956;4.242;2022-07-06T14:50:41;30.30;73.30
13148;DHT22;6639;50.956;4.242;2022-07-06T14:53:08;30.40;73.50
13148;DHT22;6639;50.956;4.242;2022-07-06T14:55:35;30.60;71.80
13148;DHT22;6639;50.956;4.242;2022-07-06T14:58:02;30.60;71.60
13148;DHT22;6639;50.956;4.242;2022-07-06T15:00:29;30.80;71.40
13148;DHT22;6639;50.956;4.242;2022-07-06T15:02:56;30.90;71.90
13148;DHT22;6639;50.956;4.242;2022-07-06T15:05:24;31.00;70.00
13148;DHT22;6639;50.956;4.242;2022-07-06T15:07:51;30.20;71.00
13148;DHT22;6639;50.956;4.242;2022-07-06T15:10:18;29.70;71.50
13148;DHT22;6639;50.956;4.242;2022-07-06T15:12:45;29.80;73.30
13148;DHT22;6639;50.956;4.242;2022-07-06T15:15:13;30.20;72.50
13148;DHT22;6639;50.956;4.242;2022-07-06T15:17:39;29.50;72.30
13148;DHT22;6639;50.956;4.242;2022-07-06T15:20:08;29.70;73.60
13148;DHT22;6639;50.956;4.242;2022-07-06T15:22:37;29.90;72.90
13148;DHT22;6639;50.956;4.242;2022-07-06T15:25:05;30.10;71.40
13148;DHT22;6639;50.956;4.242;2022-07-06T15:27:32;30.20;72.50
13148;DHT22;6639;50.956;4.242;2022-07-06T15:29:59;30.10;71.70
13148;DHT22;6639;50.956;4.242;2022-07-06T15:32:26;30.00;71.80
13148;DHT22;6639;50.956;4.242;2022-07-06T15:34:54;29.70;72.70
13148;DHT22;6639;50.956;4.242;2022-07-06T15:37:22;29.80;73.10
13148;DHT22;6639;50.956;4.242;2022-07-06T15:39:50;29.80;72.50
13148;DHT22;6639;50.956;4.242;2022-07-06T15:42:19;29.70;72.70
13148;DHT22;6639;50.956;4.242;2022-07-06T15:44:47;30.20;71.70
13148;DHT22;6639;50.956;4.242;2022-07-06T15:47:17;30.40;72.40
13148;DHT22;6639;50.956;4.242;2022-07-06T15:49:44;30.30;71.10
13148;DHT22;6639;50.956;4.242;2022-07-06T15:52:14;30.00;72.60
13148;DHT22;6639;50.956;4.242;2022-07-06T15:54:42;29.90;71.80
13148;DHT22;6639;50.956;4.242;2022-07-06T15:57:10;29.30;72.60